Accueil
METAR-TAF:

METAR-TAF

Aéroports :

Mönchengladbach, Allemagne

latitude: 51-13-49N, longitude: 006-30-16E, altitude: 38 m

Observation

Le bulletin a été fait il y a 1 heure et 25 minutes, à 12:50 UTC
Vent 8 kt de nord/nord-est, variant entre nord/nord-ouest et est/nord-est
Température 24°C
Humidité 31%
Pression 1021 hPa
Visibilité 10 km ou plus
pas de nuages en-dessous de 1500 mètres et pas de cumulonimbus.

METAR: EDLN 011250Z 02008KT 330V070 CAVOK 24/06 Q1021

Heure: 16:15 (14:15 UTC)

Prévision

Le bulletin a été fait il y a 3 heures et 15 minutes, à 11:00 UTC
Prévision valable du 01 à 12 UTC au 01 à 21 UTC
Vent 6 kt de nord-est
Visibilité 10 km ou plus
pas de nuages en-dessous de 1500 mètres et pas de cumulonimbus.

TAF: EDLN 011100Z 0112/0121 05006KT CAVOK

Observations et prévisions météorologiques de plus de 4000 aéroports (messages METAR et TAF).

Les stations disponibles sont représentées par des disques jaunes et rouges sur la carte.

Passer la souris dessus pour voir le nom de la station.

Cliquer dessus pour voir les observations et prévisions météorologiques.

Pour changer de carte: cliquez sur les boutons verts avec une croix noire pour zoomer, sur le bouton vert avec un tiret pour effectuer un zoom arrière, ou sur les flèches vertes pour les cartes adjacentes.


METAR-TAF: